createdAt,value
2023-05-05T00:00:20.727Z,16.60
2023-05-05T00:04:23.464Z,16.60
2023-05-05T00:08:24.650Z,16.60
2023-05-05T00:12:25.796Z,16.60
2023-05-05T00:16:27.042Z,16.60
2023-05-05T00:20:28.171Z,16.50
2023-05-05T00:24:29.310Z,16.40
2023-05-05T00:28:30.567Z,16.40
2023-05-05T00:32:31.777Z,16.30
2023-05-05T00:36:32.856Z,16.10
2023-05-05T00:40:34.116Z,16.10
2023-05-05T00:44:40.755Z,16.10
2023-05-05T00:48:41.908Z,16.00
2023-05-05T00:52:43.043Z,16.00
2023-05-05T00:56:45.108Z,16.00
2023-05-05T01:00:46.292Z,15.90
2023-05-05T01:04:47.944Z,15.90
2023-05-05T01:08:53.268Z,15.70
2023-05-05T01:13:17.979Z,15.70
2023-05-05T01:17:26.046Z,15.80
2023-05-05T01:21:39.603Z,15.80
2023-05-05T01:26:12.063Z,15.80
2023-05-05T01:30:35.236Z,15.70
2023-05-05T01:34:42.683Z,15.80
2023-05-05T01:38:45.135Z,15.80
2023-05-05T01:42:47.496Z,15.90
2023-05-05T01:46:51.257Z,15.80
2023-05-05T01:50:53.447Z,15.70
2023-05-05T01:54:56.612Z,15.60
2023-05-05T01:58:59.767Z,15.40
2023-05-05T02:03:03.716Z,15.20
2023-05-05T02:07:06.600Z,14.80
2023-05-05T02:11:09.989Z,14.70
2023-05-05T02:15:12.574Z,14.80
2023-05-05T02:19:14.952Z,15.10
2023-05-05T02:23:16.229Z,15.10
2023-05-05T02:27:20.086Z,15.00
2023-05-05T02:31:23.266Z,15.00
2023-05-05T02:35:28.223Z,14.70
2023-05-05T02:39:39.219Z,14.80
2023-05-05T02:43:42.584Z,14.80
2023-05-05T02:47:43.758Z,15.00
2023-05-05T02:51:45.011Z,14.90
2023-05-05T02:56:08.237Z,14.90
2023-05-05T03:00:24.909Z,14.90
2023-05-05T03:04:41.388Z,14.90
2023-05-05T03:09:05.556Z,14.80
2023-05-05T03:13:10.100Z,14.80
2023-05-05T03:17:12.550Z,14.80
2023-05-05T03:21:14.192Z,15.10
2023-05-05T03:25:15.466Z,15.10
2023-05-05T03:29:16.844Z,15.10
2023-05-05T03:33:18.826Z,15.20
2023-05-05T03:37:19.986Z,15.10
2023-05-05T03:41:22.950Z,15.20
2023-05-05T03:45:24.532Z,15.20
2023-05-05T03:49:26.011Z,15.10
2023-05-05T03:53:27.285Z,15.00
2023-05-05T03:57:28.458Z,15.10
2023-05-05T04:01:30.710Z,15.10
2023-05-05T04:05:31.865Z,15.20
2023-05-05T04:09:33.089Z,15.20
2023-05-05T04:13:34.248Z,15.30
2023-05-05T04:17:35.413Z,15.20
2023-05-05T04:21:36.574Z,15.30
2023-05-05T04:25:38.253Z,15.30
2023-05-05T04:29:39.386Z,15.40
2023-05-05T04:33:40.550Z,15.40
2023-05-05T04:37:41.704Z,15.40
2023-05-05T04:41:42.886Z,15.60
2023-05-05T04:45:54.270Z,16.00
2023-05-05T04:49:55.452Z,16.30
2023-05-05T04:53:57.057Z,15.90
2023-05-05T04:57:58.202Z,15.90
2023-05-05T05:02:00.194Z,16.00
2023-05-05T05:06:01.658Z,16.30
2023-05-05T05:10:03.114Z,16.40
2023-05-05T05:14:04.273Z,16.40
2023-05-05T05:18:05.897Z,16.80
2023-05-05T05:22:07.100Z,17.00
2023-05-05T05:26:08.254Z,17.40
2023-05-05T05:30:10.225Z,17.10
2023-05-05T05:34:12.800Z,17.00
2023-05-05T05:38:14.229Z,17.10
2023-05-05T05:42:15.479Z,17.20
2023-05-05T05:46:17.583Z,17.50
2023-05-05T05:50:18.771Z,17.30
2023-05-05T05:54:19.912Z,17.50
2023-05-05T05:58:21.077Z,17.20
2023-05-05T06:02:22.272Z,17.50
2023-05-05T06:06:23.527Z,17.70
2023-05-05T06:10:27.539Z,17.60
2023-05-05T06:14:27.644Z,17.40
2023-05-05T06:18:28.850Z,17.30
2023-05-05T06:22:30.593Z,17.80
2023-05-05T06:26:31.788Z,17.90
2023-05-05T06:30:33.277Z,18.10
2023-05-05T06:34:34.449Z,18.40
2023-05-05T06:38:35.709Z,19.00
2023-05-05T06:42:37.052Z,19.10
2023-05-05T06:46:38.262Z,19.40
2023-05-05T06:50:39.372Z,19.40
2023-05-05T06:54:40.639Z,19.60
2023-05-05T06:58:41.915Z,19.40
2023-05-05T07:02:43.652Z,19.50
2023-05-05T07:06:44.793Z,19.60
2023-05-05T07:10:46.588Z,19.70
2023-05-05T07:14:47.733Z,19.90
2023-05-05T07:18:48.907Z,20.50
2023-05-05T07:22:50.167Z,20.80
2023-05-05T07:26:51.360Z,21.30
2023-05-05T07:30:52.613Z,21.60
2023-05-05T07:34:54.103Z,21.90
2023-05-05T07:38:55.248Z,21.60
2023-05-05T07:42:56.683Z,21.90
2023-05-05T07:46:57.870Z,22.10
2023-05-05T07:50:59.129Z,22.10
2023-05-05T07:55:00.293Z,22.10
2023-05-05T07:59:01.487Z,22.40
2023-05-05T08:03:02.821Z,22.70
2023-05-05T08:07:04.042Z,22.90
2023-05-05T08:11:05.797Z,23.30
2023-05-05T08:15:07.898Z,23.70
2023-05-05T08:19:21.106Z,23.80
2023-05-05T08:23:12.293Z,23.80
2023-05-05T08:27:13.577Z,23.90
2023-05-05T08:31:15.261Z,23.80
2023-05-05T08:35:16.538Z,23.80
2023-05-05T08:39:18.053Z,24.20
2023-05-05T08:43:22.650Z,24.60
2023-05-05T08:47:23.898Z,24.90
2023-05-05T08:51:27.853Z,25.30
2023-05-05T08:55:32.804Z,25.10
2023-05-05T08:59:34.920Z,24.80
2023-05-05T09:03:36.925Z,24.60
2023-05-05T09:07:40.328Z,24.30
2023-05-05T09:11:42.709Z,24.30
2023-05-05T09:15:43.989Z,24.60
2023-05-05T09:20:06.515Z,24.70
2023-05-05T09:24:10.158Z,25.60
2023-05-05T09:28:13.572Z,26.10
2023-05-05T09:32:17.090Z,26.40
2023-05-05T09:36:18.273Z,26.40
2023-05-05T09:40:20.412Z,25.70
2023-05-05T09:44:25.567Z,26.00
2023-05-05T09:48:29.536Z,25.60
2023-05-05T09:52:31.277Z,26.10
2023-05-05T09:56:41.348Z,26.50
2023-05-05T10:00:42.505Z,26.70
2023-05-05T10:04:43.777Z,26.60
2023-05-05T10:08:44.882Z,26.70
2023-05-05T10:12:47.106Z,26.70
2023-05-05T10:16:52.897Z,27.20
2023-05-05T10:21:00.607Z,27.50
2023-05-05T10:25:04.905Z,27.70
2023-05-05T10:29:09.880Z,28.00
2023-05-05T10:37:25.472Z,28.60
2023-05-05T10:41:27.922Z,28.50
2023-05-05T10:45:30.197Z,28.40
2023-05-05T10:49:44.330Z,28.10
2023-05-05T10:53:49.301Z,28.10
2023-05-05T10:57:52.997Z,27.80
2023-05-05T11:01:54.183Z,27.80
2023-05-05T11:06:06.890Z,28.00
2023-05-05T11:10:10.917Z,27.30
2023-05-05T11:14:23.671Z,27.20
2023-05-05T11:18:34.060Z,27.80
2023-05-05T11:22:56.015Z,27.70
2023-05-05T11:26:57.205Z,28.00
2023-05-05T11:31:05.236Z,27.70
2023-05-05T11:35:07.270Z,28.20
2023-05-05T11:39:11.149Z,28.90
2023-05-05T11:43:12.338Z,28.80
2023-05-05T11:47:20.280Z,28.80
2023-05-05T11:51:21.648Z,28.60
2023-05-05T11:55:22.906Z,29.20
2023-05-05T11:59:24.761Z,28.90
2023-05-05T12:03:26.458Z,28.10
2023-05-05T12:07:30.539Z,28.30
2023-05-05T12:11:35.519Z,28.20
2023-05-05T12:15:36.671Z,28.30
2023-05-05T12:19:47.215Z,28.30
2023-05-05T12:23:48.396Z,28.70
2023-05-05T12:27:52.672Z,29.00
2023-05-05T12:31:54.087Z,28.90
2023-05-05T12:35:55.571Z,29.20
2023-05-05T12:39:56.741Z,29.30
2023-05-05T12:43:59.730Z,29.40
2023-05-05T12:48:00.996Z,29.00
2023-05-05T12:52:02.708Z,28.60
2023-05-05T12:56:04.139Z,28.20
2023-05-05T13:00:13.876Z,28.40
2023-05-05T13:04:15.646Z,28.90
2023-05-05T13:08:17.924Z,29.40
2023-05-05T13:12:20.002Z,28.70
2023-05-05T13:16:22.679Z,29.30
2023-05-05T13:20:23.979Z,29.50
2023-05-05T13:24:37.960Z,28.40
2023-05-05T13:28:28.981Z,27.80
2023-05-05T13:32:30.517Z,27.90
2023-05-05T13:36:32.146Z,28.40
2023-05-05T13:40:33.290Z,29.10
2023-05-05T13:44:34.948Z,29.20
2023-05-05T13:48:36.131Z,28.10
2023-05-05T13:52:37.823Z,27.90
2023-05-05T13:56:39.254Z,28.30
2023-05-05T14:00:40.745Z,28.10
2023-05-05T14:04:42.163Z,28.40
2023-05-05T14:08:43.593Z,28.20
2023-05-05T14:12:45.331Z,28.50
2023-05-05T14:16:49.375Z,29.10
2023-05-05T14:20:49.893Z,29.10
2023-05-05T14:24:54.751Z,29.20
2023-05-05T14:29:08.140Z,28.80
2023-05-05T14:33:17.686Z,28.50
2023-05-05T14:37:27.169Z,28.40
2023-05-05T14:41:35.411Z,28.10
2023-05-05T14:45:40.648Z,28.00
2023-05-05T14:49:52.102Z,27.70
2023-05-05T14:53:53.819Z,27.80
2023-05-05T14:57:55.927Z,27.60
2023-05-05T15:01:59.605Z,27.20
2023-05-05T15:06:01.424Z,26.90
2023-05-05T15:10:03.943Z,26.80
2023-05-05T15:14:05.324Z,26.90
2023-05-05T15:18:07.005Z,26.70
2023-05-05T15:22:08.583Z,26.30
2023-05-05T15:26:09.798Z,26.10
2023-05-05T15:30:13.271Z,26.00
2023-05-05T15:34:14.604Z,25.80
2023-05-05T15:38:15.749Z,25.60
2023-05-05T15:42:16.934Z,24.80
2023-05-05T15:46:18.133Z,24.40
2023-05-05T15:50:19.458Z,24.20
2023-05-05T15:54:20.752Z,24.20
2023-05-05T15:58:22.108Z,23.80
2023-05-05T16:02:23.765Z,23.80
2023-05-05T16:06:26.557Z,23.70
2023-05-05T16:10:27.711Z,23.40
2023-05-05T16:14:31.097Z,23.20
2023-05-05T16:18:32.276Z,23.20
2023-05-05T16:22:33.435Z,23.40
2023-05-05T16:26:35.228Z,23.20
2023-05-05T16:30:37.346Z,23.10
2023-05-05T16:34:38.579Z,23.30
2023-05-05T16:38:41.198Z,23.20
2023-05-05T16:42:44.338Z,23.20
2023-05-05T16:46:46.059Z,23.30
2023-05-05T16:50:47.318Z,23.30
2023-05-05T16:54:50.380Z,23.10
2023-05-05T16:58:51.873Z,23.10
2023-05-05T17:02:53.184Z,22.80
2023-05-05T17:06:54.624Z,22.80
2023-05-05T17:10:55.773Z,22.60
2023-05-05T17:14:56.967Z,22.60
2023-05-05T17:18:58.143Z,22.40
2023-05-05T17:23:01.361Z,22.20
2023-05-05T17:27:02.590Z,22.20
2023-05-05T17:31:03.754Z,22.10
2023-05-05T17:35:05.565Z,22.10
2023-05-05T17:39:06.777Z,22.00
2023-05-05T17:43:07.955Z,22.00
2023-05-05T17:47:09.827Z,22.00
2023-05-05T17:51:11.278Z,21.80
2023-05-05T17:55:12.775Z,22.00
2023-05-05T17:59:14.007Z,21.80
2023-05-05T18:03:15.649Z,21.80
2023-05-05T18:07:17.029Z,21.80
2023-05-05T18:11:20.303Z,21.70
2023-05-05T18:15:21.704Z,21.70
2023-05-05T18:19:23.116Z,21.50
2023-05-05T18:23:24.261Z,21.50
2023-05-05T18:27:26.933Z,21.50
2023-05-05T18:31:28.142Z,21.40
2023-05-05T18:35:29.234Z,21.40
2023-05-05T18:39:30.347Z,21.20
2023-05-05T18:43:31.446Z,21.20
2023-05-05T18:47:33.019Z,21.30
2023-05-05T18:51:34.288Z,21.10
2023-05-05T18:55:36.707Z,21.00
2023-05-05T18:59:38.042Z,20.90
2023-05-05T19:03:39.487Z,20.90
2023-05-05T19:07:40.758Z,20.80
2023-05-05T19:11:42.238Z,20.30
2023-05-05T19:15:43.930Z,20.20
2023-05-05T19:19:45.281Z,20.40
2023-05-05T19:23:46.610Z,20.60
2023-05-05T19:27:47.797Z,20.60
2023-05-05T19:31:49.010Z,20.60
2023-05-05T19:35:50.500Z,20.60
2023-05-05T19:39:51.919Z,20.50
2023-05-05T19:43:53.206Z,20.50
2023-05-05T19:47:54.481Z,20.50
2023-05-05T19:51:56.838Z,20.50
2023-05-05T19:55:58.876Z,20.30
2023-05-05T20:00:00.232Z,20.20
2023-05-05T20:04:02.880Z,20.20
2023-05-05T20:08:04.502Z,20.10
2023-05-05T20:12:06.359Z,20.10
2023-05-05T20:16:07.952Z,20.20
2023-05-05T20:20:09.614Z,20.40
2023-05-05T20:24:11.020Z,20.00
2023-05-05T20:28:12.146Z,20.00
2023-05-05T20:32:13.429Z,19.80
2023-05-05T20:36:15.561Z,19.70
2023-05-05T20:40:16.821Z,19.70
2023-05-05T20:44:18.183Z,19.60
2023-05-05T20:48:19.315Z,19.50
2023-05-05T20:52:20.366Z,19.60
2023-05-05T20:56:21.547Z,19.50
2023-05-05T21:00:24.742Z,19.40
2023-05-05T21:04:29.763Z,19.20
2023-05-05T21:08:30.756Z,19.30
2023-05-05T21:12:33.356Z,19.00
2023-05-05T21:16:34.524Z,19.20
2023-05-05T21:20:35.749Z,19.10
2023-05-05T21:24:37.847Z,19.00
2023-05-05T21:28:38.998Z,19.10
2023-05-05T21:32:40.461Z,18.90
2023-05-05T21:36:42.021Z,18.70
2023-05-05T21:40:43.478Z,18.80
2023-05-05T21:44:45.307Z,18.90
2023-05-05T21:48:47.591Z,18.80
2023-05-05T21:52:49.453Z,18.80
2023-05-05T21:56:51.085Z,18.70
2023-05-05T22:00:52.355Z,18.90
2023-05-05T22:04:54.128Z,18.80
2023-05-05T22:08:56.548Z,18.80
2023-05-05T22:13:00.605Z,18.70
2023-05-05T22:17:02.332Z,18.40
2023-05-05T22:21:03.830Z,18.40
2023-05-05T22:25:05.934Z,18.30
2023-05-05T22:29:07.070Z,18.00
2023-05-05T22:33:08.359Z,18.00
2023-05-05T22:37:09.697Z,18.00
2023-05-05T22:41:10.859Z,17.90
2023-05-05T22:45:12.937Z,17.90
2023-05-05T22:49:14.311Z,17.90
2023-05-05T22:53:16.104Z,18.00
2023-05-05T22:57:17.378Z,17.90
2023-05-05T23:01:18.585Z,18.00
2023-05-05T23:05:19.880Z,18.00
2023-05-05T23:09:21.248Z,17.80
2023-05-05T23:13:22.475Z,17.60
2023-05-05T23:17:23.620Z,17.60
2023-05-05T23:21:24.745Z,17.60
2023-05-05T23:25:25.899Z,17.60
2023-05-05T23:29:27.281Z,17.60
2023-05-05T23:33:28.418Z,17.40
2023-05-05T23:37:29.793Z,17.40
2023-05-05T23:41:31.061Z,17.40
2023-05-05T23:45:32.211Z,17.40
2023-05-05T23:49:33.346Z,17.50
2023-05-05T23:53:34.539Z,17.30
2023-05-05T23:57:36.118Z,17.40
